createdAt,value
2022-12-10T00:02:00.546Z,71.10
2022-12-10T00:04:27.103Z,71.00
2022-12-10T00:06:53.706Z,71.00
2022-12-10T00:09:20.905Z,70.90
2022-12-10T00:11:47.848Z,70.90
2022-12-10T00:14:15.080Z,70.90
2022-12-10T00:16:41.957Z,70.80
2022-12-10T00:19:08.658Z,70.80
2022-12-10T00:21:36.450Z,71.50
2022-12-10T00:24:03.729Z,70.90
2022-12-10T00:26:31.593Z,70.80
2022-12-10T00:28:58.786Z,70.70
2022-12-10T00:31:27.595Z,70.70
2022-12-10T00:33:55.003Z,70.70
2022-12-10T00:36:26.130Z,70.70
2022-12-10T00:38:52.937Z,70.50
2022-12-10T00:41:19.512Z,71.90
2022-12-10T00:43:46.086Z,72.10
2022-12-10T00:46:13.397Z,72.80
2022-12-10T00:48:40.312Z,73.20
2022-12-10T00:51:06.943Z,74.00
2022-12-10T00:53:34.141Z,75.00
2022-12-10T00:56:01.122Z,76.30
2022-12-10T00:58:28.998Z,76.40
2022-12-10T01:00:55.906Z,76.10
2022-12-10T01:03:22.475Z,76.30
2022-12-10T01:05:49.068Z,76.10
2022-12-10T01:08:15.646Z,75.80
2022-12-10T01:10:42.166Z,75.80
2022-12-10T01:13:08.720Z,76.30
2022-12-10T01:15:38.195Z,76.60
2022-12-10T01:18:04.809Z,76.80
2022-12-10T01:20:34.830Z,77.10
2022-12-10T01:23:01.376Z,76.70
2022-12-10T01:25:28.064Z,75.80
2022-12-10T01:27:54.611Z,75.90
2022-12-10T01:30:21.145Z,75.90
2022-12-10T01:32:47.680Z,76.20
2022-12-10T01:35:15.042Z,77.00
2022-12-10T01:37:41.608Z,77.90
2022-12-10T01:40:08.816Z,77.50
2022-12-10T01:42:35.526Z,77.80
2022-12-10T01:45:06.279Z,78.00
2022-12-10T01:47:32.839Z,76.80
2022-12-10T01:49:59.825Z,76.60
2022-12-10T01:52:26.415Z,76.90
2022-12-10T01:54:53.460Z,77.20
2022-12-10T01:57:22.419Z,77.20
2022-12-10T02:00:01.136Z,77.70
2022-12-10T02:02:47.947Z,78.30
2022-12-10T02:05:22.485Z,78.60
2022-12-10T02:07:49.089Z,77.00
2022-12-10T02:10:34.462Z,76.70
2022-12-10T02:13:19.811Z,77.20
2022-12-10T02:15:53.766Z,77.60
2022-12-10T02:18:39.098Z,76.70
2022-12-10T02:21:11.784Z,76.70
2022-12-10T02:23:43.997Z,76.70
2022-12-10T02:26:13.582Z,76.30
2022-12-10T02:28:54.013Z,77.30
2022-12-10T02:31:24.024Z,76.20
2022-12-10T02:33:52.416Z,76.00
2022-12-10T02:36:20.426Z,76.40
2022-12-10T02:38:48.495Z,76.70
2022-12-10T02:41:18.415Z,76.90
2022-12-10T02:43:48.900Z,76.60
2022-12-10T02:46:16.502Z,77.00
2022-12-10T02:48:43.150Z,76.20
2022-12-10T02:51:09.919Z,75.90
2022-12-10T02:53:42.087Z,75.70
2022-12-10T02:56:08.632Z,75.50
2022-12-10T02:58:44.678Z,75.10
2022-12-10T03:01:11.186Z,75.10
2022-12-10T03:03:50.870Z,74.90
2022-12-10T03:06:22.135Z,74.90
2022-12-10T03:08:52.867Z,74.60
2022-12-10T03:11:20.734Z,74.40
2022-12-10T03:14:08.645Z,74.20
2022-12-10T03:16:58.613Z,74.80
2022-12-10T03:19:29.137Z,75.70
2022-12-10T03:21:56.386Z,75.80
2022-12-10T03:24:23.295Z,76.10
2022-12-10T03:26:50.909Z,76.50
2022-12-10T03:29:23.185Z,76.00
2022-12-10T03:31:50.318Z,75.50
2022-12-10T03:34:17.232Z,76.00
2022-12-10T03:36:45.170Z,75.40
2022-12-10T03:39:12.171Z,74.90
2022-12-10T03:41:38.645Z,75.10
2022-12-10T03:44:05.272Z,75.50
2022-12-10T03:46:32.378Z,75.00
2022-12-10T03:48:59.386Z,75.70
2022-12-10T03:51:25.991Z,76.00
2022-12-10T03:53:52.544Z,76.00
2022-12-10T03:56:19.667Z,76.20
2022-12-10T03:58:46.608Z,75.40
2022-12-10T04:01:13.411Z,75.40
2022-12-10T04:03:41.431Z,74.90
2022-12-10T04:06:09.187Z,74.90
2022-12-10T04:08:35.864Z,74.30
2022-12-10T04:11:03.929Z,73.70
2022-12-10T04:13:50.172Z,74.50
2022-12-10T04:16:28.841Z,74.00
2022-12-10T04:19:09.288Z,73.40
2022-12-10T04:21:56.269Z,74.20
2022-12-10T04:24:43.021Z,74.60
2022-12-10T04:27:11.419Z,74.90
2022-12-10T04:29:38.260Z,74.90
2022-12-10T04:32:04.981Z,74.90
2022-12-10T04:34:31.672Z,74.90
2022-12-10T04:36:58.794Z,74.50
2022-12-10T04:39:25.625Z,74.00
2022-12-10T04:41:52.462Z,74.60
2022-12-10T04:44:19.417Z,74.90
2022-12-10T04:46:46.358Z,74.90
2022-12-10T04:49:13.199Z,74.90
2022-12-10T04:51:39.730Z,74.20
2022-12-10T04:54:06.793Z,73.90
2022-12-10T04:56:33.868Z,72.30
2022-12-10T04:59:00.927Z,71.90
2022-12-10T05:01:28.310Z,72.00
2022-12-10T05:03:55.199Z,72.50
2022-12-10T05:06:21.949Z,72.20
2022-12-10T05:08:48.590Z,72.00
2022-12-10T05:11:19.183Z,71.60
2022-12-10T05:13:46.013Z,72.20
2022-12-10T05:16:14.499Z,72.60
2022-12-10T05:18:41.385Z,72.90
2022-12-10T05:21:08.956Z,72.10
2022-12-10T05:23:39.058Z,71.50
2022-12-10T05:26:07.195Z,70.80
2022-12-10T05:28:35.185Z,72.10
2022-12-10T05:31:01.936Z,71.90
2022-12-10T05:33:28.775Z,72.80
2022-12-10T05:35:59.517Z,73.10
2022-12-10T05:38:26.204Z,72.40
2022-12-10T05:40:56.985Z,71.70
2022-12-10T05:43:23.800Z,71.80
2022-12-10T05:45:50.387Z,72.60
2022-12-10T05:48:17.727Z,72.30
2022-12-10T05:50:44.394Z,74.00
2022-12-10T05:53:10.998Z,74.80
2022-12-10T05:55:37.496Z,74.80
2022-12-10T05:58:04.121Z,74.80
2022-12-10T06:00:30.644Z,75.00
2022-12-10T06:02:57.272Z,75.10
2022-12-10T06:05:23.824Z,75.90
2022-12-10T06:07:50.418Z,75.10
2022-12-10T06:10:17.066Z,74.40
2022-12-10T06:12:43.621Z,74.70
2022-12-10T06:15:10.405Z,75.00
2022-12-10T06:17:37.214Z,74.90
2022-12-10T06:20:04.175Z,74.80
2022-12-10T06:22:30.685Z,74.80
2022-12-10T06:24:57.214Z,74.80
2022-12-10T06:27:23.885Z,75.40
2022-12-10T06:29:50.407Z,75.80
2022-12-10T06:32:16.968Z,76.90
2022-12-10T06:34:43.481Z,77.10
2022-12-10T06:37:10.020Z,76.30
2022-12-10T06:39:36.600Z,76.40
2022-12-10T06:42:03.255Z,76.90
2022-12-10T06:44:29.834Z,75.40
2022-12-10T06:46:56.478Z,76.20
2022-12-10T06:49:23.093Z,76.40
2022-12-10T06:51:49.655Z,76.50
2022-12-10T06:54:16.163Z,76.40
2022-12-10T06:56:42.723Z,76.60
2022-12-10T06:59:09.285Z,76.70
2022-12-10T07:01:36.078Z,75.70
2022-12-10T07:04:02.747Z,76.60
2022-12-10T07:06:31.506Z,76.60
2022-12-10T07:08:58.538Z,76.30
2022-12-10T07:11:25.586Z,75.70
2022-12-10T07:13:52.530Z,75.20
2022-12-10T07:16:21.013Z,75.50
2022-12-10T07:18:52.100Z,74.70
2022-12-10T07:21:27.033Z,73.40
2022-12-10T07:23:55.914Z,73.00
2022-12-10T07:26:23.082Z,73.30
2022-12-10T07:28:53.506Z,73.50
2022-12-10T07:31:21.064Z,73.70
2022-12-10T07:33:47.647Z,73.20
2022-12-10T07:36:15.276Z,72.30
2022-12-10T07:38:41.812Z,72.00
2022-12-10T07:41:10.050Z,72.30
2022-12-10T07:43:37.260Z,72.20
2022-12-10T07:46:05.110Z,71.80
2022-12-10T07:48:31.740Z,72.30
2022-12-10T07:50:58.974Z,71.30
2022-12-10T07:53:25.538Z,71.30
2022-12-10T07:55:52.245Z,71.40
2022-12-10T07:58:18.870Z,70.80
2022-12-10T08:00:45.519Z,70.70
2022-12-10T08:03:12.252Z,70.70
2022-12-10T08:05:38.972Z,70.80
2022-12-10T08:08:08.098Z,70.80
2022-12-10T08:10:35.524Z,70.90
2022-12-10T08:13:02.549Z,70.80
2022-12-10T08:15:29.184Z,70.80
2022-12-10T08:17:56.255Z,70.80
2022-12-10T08:20:23.239Z,70.80
2022-12-10T08:22:49.837Z,70.90
2022-12-10T08:25:16.473Z,70.60
2022-12-10T08:27:43.189Z,69.60
2022-12-10T08:30:10.149Z,69.20
2022-12-10T08:32:36.905Z,67.00
2022-12-10T08:35:03.536Z,67.00
2022-12-10T08:37:30.087Z,66.60
2022-12-10T08:39:56.637Z,66.50
2022-12-10T08:42:23.179Z,65.70
2022-12-10T08:44:49.770Z,64.40
2022-12-10T08:47:16.281Z,62.90
2022-12-10T08:49:42.815Z,63.00
2022-12-10T08:52:09.404Z,60.50
2022-12-10T08:54:36.007Z,57.40
2022-12-10T08:57:02.739Z,56.00
2022-12-10T08:59:29.241Z,54.30
2022-12-10T09:01:56.740Z,53.80
2022-12-10T09:04:23.588Z,52.90
2022-12-10T09:06:51.186Z,50.00
2022-12-10T09:09:17.767Z,48.00
2022-12-10T09:11:46.569Z,48.60
2022-12-10T09:14:13.413Z,50.00
2022-12-10T09:16:40.266Z,46.00
2022-12-10T09:19:07.200Z,44.00
2022-12-10T09:21:33.766Z,44.00
2022-12-10T09:24:00.357Z,42.70
2022-12-10T09:26:27.083Z,41.30
2022-12-10T09:28:54.028Z,40.80
2022-12-10T09:31:21.010Z,40.30
2022-12-10T09:33:48.414Z,37.40
2022-12-10T09:36:15.235Z,36.60
2022-12-10T09:38:42.666Z,35.20
2022-12-10T09:41:12.027Z,35.40
2022-12-10T09:43:48.044Z,33.60
2022-12-10T09:46:14.629Z,33.70
2022-12-10T09:48:53.170Z,33.80
2022-12-10T09:51:25.122Z,33.70
2022-12-10T09:53:59.213Z,33.80
2022-12-10T09:56:35.604Z,33.70
2022-12-10T09:59:04.654Z,33.80
2022-12-10T10:01:32.295Z,32.40
2022-12-10T10:03:58.848Z,32.00
2022-12-10T10:06:26.770Z,31.30
2022-12-10T10:08:55.068Z,31.40
2022-12-10T10:11:23.635Z,32.50
2022-12-10T10:13:52.574Z,34.00
2022-12-10T10:16:24.288Z,30.00
2022-12-10T10:19:14.957Z,30.30
2022-12-10T10:21:43.364Z,30.40
2022-12-10T10:24:23.851Z,32.20
2022-12-10T10:26:52.171Z,33.90
2022-12-10T10:29:21.099Z,32.90
2022-12-10T10:31:48.113Z,33.70
2022-12-10T10:34:18.986Z,33.60
2022-12-10T10:36:45.992Z,35.30
2022-12-10T10:39:24.690Z,33.60
2022-12-10T10:41:57.999Z,34.20
2022-12-10T10:44:27.104Z,36.10
2022-12-10T10:46:54.971Z,34.40
2022-12-10T10:49:27.620Z,28.20
2022-12-10T10:51:58.872Z,25.60
2022-12-10T10:54:34.575Z,22.30
2022-12-10T10:57:16.320Z,18.70
2022-12-10T10:59:42.892Z,18.50
2022-12-10T11:02:21.392Z,19.70
2022-12-10T11:04:50.010Z,20.50
2022-12-10T11:07:26.512Z,21.10
2022-12-10T11:09:54.273Z,22.20
2022-12-10T11:12:35.871Z,22.20
2022-12-10T11:15:02.635Z,20.90
2022-12-10T11:17:29.226Z,18.50
2022-12-10T11:20:22.164Z,16.90
2022-12-10T11:22:52.897Z,18.60
2022-12-10T11:25:22.901Z,18.80
2022-12-10T11:28:15.767Z,17.20
2022-12-10T11:30:46.537Z,18.50
2022-12-10T11:33:22.316Z,18.90
2022-12-10T11:35:48.816Z,19.40
2022-12-10T11:38:29.414Z,17.80
2022-12-10T11:40:55.948Z,18.80
2022-12-10T11:43:26.618Z,20.40
2022-12-10T11:46:06.954Z,21.00
2022-12-10T11:48:59.844Z,22.00
2022-12-10T11:51:31.734Z,22.00
2022-12-10T11:54:15.184Z,21.70
2022-12-10T11:56:44.890Z,22.80
2022-12-10T12:00:02.754Z,23.00
2022-12-10T12:02:37.980Z,24.10
2022-12-10T12:05:10.907Z,25.30
2022-12-10T12:07:45.690Z,24.10
2022-12-10T12:10:21.198Z,24.90
2022-12-10T12:12:56.181Z,23.70
2022-12-10T12:15:22.778Z,23.70
2022-12-10T12:17:51.270Z,23.60
2022-12-10T12:20:35.462Z,22.90
2022-12-10T12:23:10.835Z,22.80
2022-12-10T12:25:39.608Z,25.30
2022-12-10T12:28:12.032Z,26.10
2022-12-10T12:30:39.915Z,26.30
2022-12-10T12:33:19.229Z,26.20
2022-12-10T12:35:48.677Z,26.80
2022-12-10T12:38:27.371Z,26.60
2022-12-10T12:41:03.604Z,27.70
2022-12-10T12:43:38.365Z,27.60
2022-12-10T12:46:10.077Z,29.40
2022-12-10T12:48:42.768Z,29.50
2022-12-10T12:51:27.691Z,29.90
2022-12-10T12:53:54.280Z,29.50
2022-12-10T12:56:42.551Z,31.60
2022-12-10T12:59:18.424Z,34.60
2022-12-10T13:01:52.040Z,34.50
2022-12-10T13:04:19.093Z,34.60
2022-12-10T13:07:05.603Z,35.00
2022-12-10T13:09:32.174Z,34.70
2022-12-10T13:12:04.790Z,34.70
2022-12-10T13:14:54.986Z,34.60
2022-12-10T13:17:34.956Z,34.50
2022-12-10T13:20:20.272Z,36.20
2022-12-10T13:22:57.415Z,34.30
2022-12-10T13:25:40.903Z,36.30
2022-12-10T13:28:30.792Z,37.70
2022-12-10T13:31:08.361Z,39.60
2022-12-10T13:33:48.726Z,41.80
2022-12-10T13:36:20.344Z,42.80
2022-12-10T13:39:04.976Z,44.80
2022-12-10T13:41:57.041Z,44.90
2022-12-10T13:44:28.260Z,44.00
2022-12-10T13:46:56.686Z,45.90
2022-12-10T13:49:24.986Z,47.90
2022-12-10T13:52:00.906Z,49.00
2022-12-10T13:54:46.115Z,48.60
2022-12-10T13:57:18.625Z,50.80
2022-12-10T13:59:50.711Z,52.00
2022-12-10T14:02:30.738Z,52.70
2022-12-10T14:05:16.239Z,52.10
2022-12-10T14:07:45.391Z,54.30
2022-12-10T14:10:15.532Z,54.80
2022-12-10T14:12:43.769Z,53.30
2022-12-10T14:15:23.572Z,53.70
2022-12-10T14:17:51.119Z,54.90
2022-12-10T14:20:19.381Z,57.10
2022-12-10T14:22:50.103Z,57.10
2022-12-10T14:25:18.382Z,59.90
2022-12-10T14:27:47.308Z,61.50
2022-12-10T14:30:21.683Z,62.10
2022-12-10T14:32:48.596Z,64.10
2022-12-10T14:35:24.966Z,64.90
2022-12-10T14:37:53.662Z,66.30
2022-12-10T14:40:37.714Z,66.80
2022-12-10T14:43:09.440Z,67.30
2022-12-10T14:45:43.002Z,68.50
2022-12-10T14:48:12.496Z,69.40
2022-12-10T14:50:40.094Z,69.10
2022-12-10T14:53:12.225Z,69.50
2022-12-10T14:55:39.554Z,69.80
2022-12-10T14:58:07.604Z,70.40
2022-12-10T15:00:34.363Z,72.20
2022-12-10T15:03:02.068Z,72.40
2022-12-10T15:05:30.215Z,71.60
2022-12-10T15:08:02.315Z,72.50
2022-12-10T15:10:32.600Z,72.40
2022-12-10T15:12:59.620Z,72.50
2022-12-10T15:15:35.277Z,71.50
2022-12-10T15:18:05.149Z,72.40
2022-12-10T15:20:32.651Z,72.30
2022-12-10T15:23:18.261Z,72.40
2022-12-10T15:25:46.088Z,72.40
2022-12-10T15:28:23.309Z,72.00
2022-12-10T15:30:52.607Z,72.90
2022-12-10T15:33:33.014Z,72.40
2022-12-10T15:36:00.037Z,72.30
2022-12-10T15:38:27.088Z,72.00
2022-12-10T15:40:58.689Z,70.90
2022-12-10T15:43:30.358Z,68.60
2022-12-10T15:45:57.872Z,68.20
2022-12-10T15:48:26.676Z,68.20
2022-12-10T15:50:53.331Z,67.50
2022-12-10T15:53:35.812Z,67.10
2022-12-10T15:56:02.824Z,65.30
2022-12-10T15:58:29.419Z,64.80
2022-12-10T16:00:56.084Z,65.30
2022-12-10T16:03:26.114Z,63.90
2022-12-10T16:05:52.720Z,63.90
2022-12-10T16:08:20.867Z,63.90
2022-12-10T16:10:48.982Z,62.20
2022-12-10T16:13:20.245Z,62.80
2022-12-10T16:15:49.188Z,63.80
2022-12-10T16:18:15.990Z,63.80
2022-12-10T16:20:42.963Z,63.70
2022-12-10T16:23:11.062Z,63.70
2022-12-10T16:25:43.067Z,63.70
2022-12-10T16:28:09.588Z,62.70
2022-12-10T16:30:43.747Z,62.50
2022-12-10T16:33:12.686Z,60.90
2022-12-10T16:35:39.238Z,62.40
2022-12-10T16:38:10.278Z,63.70
2022-12-10T16:40:38.866Z,63.80
2022-12-10T16:43:05.724Z,63.70
2022-12-10T16:45:37.278Z,63.70
2022-12-10T16:48:04.452Z,63.70
2022-12-10T16:50:31.403Z,64.90
2022-12-10T16:52:58.240Z,63.70
2022-12-10T16:55:26.240Z,63.70
2022-12-10T16:57:53.425Z,63.70
2022-12-10T17:00:21.239Z,63.70
2022-12-10T17:02:48.342Z,63.70
2022-12-10T17:05:34.275Z,63.70
2022-12-10T17:08:00.863Z,63.70
2022-12-10T17:10:59.658Z,62.80
2022-12-10T17:13:27.180Z,62.10
2022-12-10T17:15:53.971Z,63.70
2022-12-10T17:18:20.595Z,63.70
2022-12-10T17:20:47.467Z,75.40
2022-12-10T17:23:14.377Z,71.90
2022-12-10T17:25:41.658Z,63.90
2022-12-10T17:28:13.180Z,61.80
2022-12-10T17:30:40.120Z,60.60
2022-12-10T17:33:06.613Z,63.70
2022-12-10T17:35:33.245Z,61.90
2022-12-10T17:37:59.764Z,62.50
2022-12-10T17:40:26.263Z,63.60
2022-12-10T17:42:52.795Z,63.60
2022-12-10T17:45:22.417Z,63.60
2022-12-10T17:47:49.603Z,63.60
2022-12-10T17:50:26.589Z,66.50
2022-12-10T17:52:57.299Z,65.10
2022-12-10T17:55:23.875Z,65.10
2022-12-10T17:57:50.679Z,65.20
2022-12-10T18:00:18.815Z,66.80
2022-12-10T18:02:45.407Z,67.50
2022-12-10T18:05:11.956Z,66.90
2022-12-10T18:07:38.495Z,66.20
2022-12-10T18:10:07.694Z,66.40
2022-12-10T18:12:34.861Z,66.40
2022-12-10T18:15:01.583Z,65.50
2022-12-10T18:17:28.358Z,65.40
2022-12-10T18:19:54.916Z,65.60
2022-12-10T18:22:21.473Z,65.50
2022-12-10T18:24:47.973Z,63.90
2022-12-10T18:27:15.692Z,64.50
2022-12-10T18:29:42.225Z,64.40
2022-12-10T18:32:10.886Z,64.50
2022-12-10T18:34:37.434Z,65.50
2022-12-10T18:37:04.110Z,66.00
2022-12-10T18:39:32.424Z,65.80
2022-12-10T18:41:58.963Z,66.40
2022-12-10T18:44:27.111Z,67.50
2022-12-10T18:46:54.951Z,67.60
2022-12-10T18:49:22.670Z,67.60
2022-12-10T18:51:49.674Z,86.40
2022-12-10T18:54:16.220Z,93.00
2022-12-10T18:56:43.359Z,96.10
2022-12-10T18:59:14.808Z,92.90
2022-12-10T19:01:41.506Z,80.30
2022-12-10T19:04:08.192Z,60.70
2022-12-10T19:06:34.849Z,44.40
2022-12-10T19:09:17.679Z,47.50
2022-12-10T19:11:49.863Z,21.60
2022-12-10T19:14:16.476Z,24.90
2022-12-10T19:16:43.040Z,27.30
2022-12-10T19:19:11.376Z,31.40
2022-12-10T19:21:38.645Z,37.00
2022-12-10T19:24:05.607Z,42.10
2022-12-10T19:26:33.893Z,45.20
2022-12-10T19:29:01.754Z,49.00
2022-12-10T19:31:28.603Z,52.20
2022-12-10T19:33:55.345Z,54.60
2022-12-10T19:36:26.275Z,53.90
2022-12-10T19:38:54.089Z,54.10
2022-12-10T19:41:20.970Z,56.70
2022-12-10T19:43:47.739Z,58.40
2022-12-10T19:46:17.214Z,59.20
2022-12-10T19:48:44.464Z,59.20
2022-12-10T19:51:11.024Z,60.00
2022-12-10T19:53:38.814Z,60.40
2022-12-10T19:56:24.404Z,60.30
2022-12-10T19:58:51.992Z,61.00
2022-12-10T20:01:19.661Z,61.60
2022-12-10T20:03:46.442Z,61.30
2022-12-10T20:06:18.728Z,61.20
2022-12-10T20:08:45.630Z,60.60
2022-12-10T20:11:12.221Z,61.50
2022-12-10T20:13:38.828Z,59.70
2022-12-10T20:16:14.213Z,60.20
2022-12-10T20:18:40.809Z,60.80
2022-12-10T20:21:07.313Z,62.90
2022-12-10T20:23:34.235Z,63.20
2022-12-10T20:26:01.501Z,63.20
2022-12-10T20:28:28.190Z,63.30
2022-12-10T20:30:54.871Z,63.20
2022-12-10T20:33:45.422Z,63.20
2022-12-10T20:36:16.501Z,63.20
2022-12-10T20:38:43.097Z,63.20
2022-12-10T20:41:11.211Z,63.20
2022-12-10T20:43:37.865Z,63.20
2022-12-10T20:46:08.694Z,63.60
2022-12-10T20:48:35.267Z,63.10
2022-12-10T20:51:01.768Z,64.00
2022-12-10T20:53:28.665Z,63.20
2022-12-10T20:55:56.371Z,63.10
2022-12-10T20:58:22.914Z,63.10
2022-12-10T21:00:49.549Z,63.10
2022-12-10T21:03:16.447Z,63.20
2022-12-10T21:05:43.037Z,63.10
2022-12-10T21:08:10.614Z,63.10
2022-12-10T21:10:54.358Z,63.90
2022-12-10T21:13:22.310Z,63.10
2022-12-10T21:15:49.001Z,63.10
2022-12-10T21:18:15.572Z,63.70
2022-12-10T21:20:42.122Z,64.60
2022-12-10T21:23:10.408Z,64.20
2022-12-10T21:25:38.206Z,63.80
2022-12-10T21:28:05.829Z,63.10
2022-12-10T21:30:33.420Z,64.00
2022-12-10T21:33:00.033Z,64.00
2022-12-10T21:35:26.718Z,63.10
2022-12-10T21:37:53.220Z,63.20
2022-12-10T21:40:19.814Z,63.10
2022-12-10T21:43:05.223Z,63.10
2022-12-10T21:45:32.161Z,63.10
2022-12-10T21:47:59.422Z,63.10
2022-12-10T21:50:29.240Z,63.10
2022-12-10T21:52:55.785Z,63.10
2022-12-10T21:55:26.706Z,63.10
2022-12-10T21:57:56.852Z,63.10
2022-12-10T22:00:23.491Z,63.10
2022-12-10T22:02:50.186Z,63.10
2022-12-10T22:05:16.787Z,61.00
2022-12-10T22:07:43.453Z,61.30
2022-12-10T22:10:11.326Z,61.60
2022-12-10T22:12:37.844Z,63.10
2022-12-10T22:15:04.971Z,60.80
2022-12-10T22:17:31.538Z,60.60
2022-12-10T22:19:58.236Z,61.10
2022-12-10T22:22:24.853Z,60.40
2022-12-10T22:24:51.375Z,60.90
2022-12-10T22:27:18.133Z,61.00
2022-12-10T22:29:44.979Z,59.60
2022-12-10T22:32:11.542Z,59.70
2022-12-10T22:34:43.576Z,59.40
2022-12-10T22:37:11.923Z,58.80
2022-12-10T22:39:38.435Z,57.10
2022-12-10T22:42:05.053Z,55.90
2022-12-10T22:44:31.601Z,56.00
2022-12-10T22:46:58.256Z,55.70
2022-12-10T22:49:24.818Z,56.00
2022-12-10T22:51:51.356Z,56.70
2022-12-10T22:54:17.875Z,56.70
2022-12-10T22:56:44.450Z,56.70
2022-12-10T22:59:11.570Z,57.00
2022-12-10T23:01:38.238Z,58.00
2022-12-10T23:04:05.101Z,58.50
2022-12-10T23:06:31.640Z,59.30
2022-12-10T23:08:58.387Z,59.20
2022-12-10T23:11:25.093Z,58.70
2022-12-10T23:13:51.670Z,58.80
2022-12-10T23:16:19.077Z,57.50
2022-12-10T23:18:49.978Z,57.70
2022-12-10T23:21:21.481Z,56.50
2022-12-10T23:23:47.988Z,55.70
2022-12-10T23:26:14.784Z,54.00
2022-12-10T23:28:41.377Z,53.50
2022-12-10T23:31:08.095Z,54.00
2022-12-10T23:33:34.651Z,54.80
2022-12-10T23:36:03.992Z,54.90
2022-12-10T23:38:30.588Z,54.50
2022-12-10T23:40:57.195Z,53.30
2022-12-10T23:43:23.764Z,53.50
2022-12-10T23:45:50.356Z,53.80
2022-12-10T23:48:17.188Z,53.20
2022-12-10T23:50:43.697Z,53.10
2022-12-10T23:53:10.239Z,53.10
2022-12-10T23:55:41.023Z,53.10
2022-12-10T23:58:07.551Z,53.10
